Terminal Aerodrome Forecast
Issued by NWS Jacksonville, FL

Home | Current Version | Previous Version | Text Only | Print | Product List | Glossary On
Versions: 1 2 3 4 5 6 7 8 9 10 11 12 13 14 15 16 17 18 19 20 21
000
FTUS42 KJAX 011900 AAA
TAFJAX
TAF AMD
KJAX 011906Z 0119/0218 13008KT P6SM VCTS SCT040CB BKN250
      TEMPO 0119/0121 VRB10G20KT 5SM TSRA BKN030CB
     FM020000 15005KT P6SM FEW040 BKN250
     FM020300 VRB03KT P6SM SCT250
     FM021300 23003KT P6SM SCT030=

USA.gov is the U.S. government's official web portal to all federal, state and local government web resources and services.